Time;durP1;ratioP1;P1;durP2;ratioP2;P2;SDS_P1;SDS_P2;PMS_P1;PMS_P2;Temp;Humidity;BMP_temperature;BMP_pressure;BME280_temperature;BME280_humidity;BME280_pressure;Samples;Min_cycle;Max_cycle;Signal;HPM_P1;HPM_P2
2022/09/07 00:01:48;;;;;;;4.78;3.88;;;23.80;99.90;;;;;;6186107;23;20546;-77
2022/09/07 00:04:14;;;;;;;5.85;4.47;;;23.80;99.90;;;;;;6186198;23;20334;-77
2022/09/07 00:06:40;;;;;;;8.15;4.20;;;23.80;99.90;;;;;;6186067;23;20013;-77
2022/09/07 00:09:06;;;;;;;5.35;4.03;;;23.80;99.90;;;;;;6186011;23;20083;-76
2022/09/07 00:11:31;;;;;;;5.22;4.78;;;23.80;99.90;;;;;;6185863;23;20012;-77
2022/09/07 00:13:57;;;;;;;4.63;4.20;;;23.90;99.90;;;;;;6186122;23;20024;-77
2022/09/07 00:16:29;;;;;;;7.82;4.35;;;23.90;99.90;;;;;;6185808;23;20000;-77
2022/09/07 00:18:57;;;;;;;4.28;4.03;;;23.90;99.90;;;;;;6185714;23;20008;-77
2022/09/07 00:21:23;;;;;;;4.55;4.15;;;23.90;99.90;;;;;;6185789;23;20005;-77
2022/09/07 00:23:50;;;;;;;5.32;4.10;;;23.90;99.90;;;;;;6186093;23;20088;-77
2022/09/07 00:26:20;;;;;;;4.35;4.10;;;23.90;99.90;;;;;;6185890;23;20005;-77
2022/09/07 00:28:47;;;;;;;4.28;3.97;;;23.90;99.90;;;;;;6159392;23;20016;-77
2022/09/07 00:31:20;;;;;;;4.18;3.83;;;23.90;99.90;;;;;;6159214;23;20005;-77
2022/09/07 00:33:48;;;;;;;4.38;4.03;;;23.90;99.90;;;;;;6185739;23;20429;-77
2022/09/07 00:36:15;;;;;;;4.53;4.25;;;23.90;99.90;;;;;;6185696;23;20059;-77
2022/09/07 00:38:41;;;;;;;4.07;3.88;;;23.90;99.90;;;;;;6185647;23;20087;-77
2022/09/07 00:41:07;;;;;;;7.55;3.72;;;23.90;99.90;;;;;;6185648;23;20437;-77
2022/09/07 00:43:39;;;;;;;5.35;4.22;;;23.90;99.90;;;;;;6185692;23;20422;-77
2022/09/07 00:46:10;;;;;;;6.78;4.25;;;23.90;99.90;;;;;;6185676;23;20004;-77
2022/09/07 00:48:58;;;;;;;5.20;4.80;;;23.90;99.90;;;;;;6185693;23;20337;-77
2022/09/07 00:51:45;;;;;;;4.28;3.97;;;23.90;99.90;;;;;;6184342;23;20005;-77
2022/09/07 00:54:16;;;;;;;4.90;4.05;;;23.90;99.90;;;;;;6185484;23;20080;-77
2022/09/07 00:56:44;;;;;;;5.40;4.57;;;23.90;99.90;;;;;;6186012;23;20008;-76
2022/09/07 00:59:13;;;;;;;6.32;4.43;;;23.80;99.90;;;;;;6158893;23;20009;-76
2022/09/07 01:01:39;;;;;;;5.30;4.55;;;23.70;99.90;;;;;;6185394;23;20033;-77
2022/09/07 01:04:06;;;;;;;4.43;4.13;;;23.80;99.90;;;;;;6185664;23;20051;-77
2022/09/07 01:06:35;;;;;;;4.75;4.20;;;23.80;99.90;;;;;;6179968;23;20315;-77
2022/09/07 01:09:09;;;;;;;4.95;4.60;;;23.80;99.90;;;;;;6185436;23;20079;-77
2022/09/07 01:11:35;;;;;;;5.30;4.80;;;23.80;99.90;;;;;;6185282;23;20043;-77
2022/09/07 01:14:06;;;;;;;5.85;5.35;;;23.80;99.90;;;;;;6185426;23;19997;-77
2022/09/07 01:16:53;;;;;;;7.25;4.80;;;23.80;99.90;;;;;;6183852;23;20001;-77
2022/09/07 01:19:25;;;;;;;4.63;4.30;;;23.70;99.90;;;;;;6185573;23;19997;-76
2022/09/07 01:22:18;;;;;;;7.25;5.35;;;23.70;99.90;;;;;;6185670;23;20005;-77
2022/09/07 01:25:09;;;;;;;4.88;3.33;;;23.70;99.90;;;;;;6183819;23;20015;-77
2022/09/07 01:28:02;;;;;;;5.88;3.58;;;23.70;99.90;;;;;;6185306;23;19993;-77
2022/09/07 01:30:33;;;;;;;8.43;4.35;;;23.70;99.90;;;;;;6185166;23;20021;-76
2022/09/07 01:33:18;;;;;;;11.60;4.43;;;23.70;99.90;;;;;;6184031;23;20076;-76
2022/09/07 01:35:52;;;;;;;7.57;3.90;;;23.70;99.90;;;;;;6185294;23;20008;-76
2022/09/07 01:38:18;;;;;;;6.78;3.47;;;23.70;99.90;;;;;;6185208;23;19997;-77
2022/09/07 01:41:18;;;;;;;4.80;3.65;;;23.80;99.90;;;;;;6185261;23;20366;-77
2022/09/07 01:44:00;;;;;;;4.75;4.25;;;23.80;99.90;;;;;;6124243;23;20381;-77
2022/09/07 01:46:28;;;;;;;4.93;4.00;;;23.70;99.90;;;;;;6185283;23;20008;-77
2022/09/07 01:49:18;;;;;;;3.85;3.28;;;23.70;99.90;;;;;;6183251;23;20037;-77
2022/09/07 01:51:48;;;;;;;3.60;3.28;;;23.70;99.90;;;;;;6169234;23;20015;-76
2022/09/07 01:54:40;;;;;;;5.18;3.42;;;23.70;99.90;;;;;;6185109;23;20430;-76
2022/09/07 01:57:18;;;;;;;3.35;3.05;;;23.70;99.90;;;;;;6184928;23;20062;-76
2022/09/07 02:00:01;;;;;;;4.53;2.45;;;23.70;99.90;;;;;;6185136;23;19997;-76
2022/09/07 02:02:32;;;;;;;3.70;2.58;;;23.70;99.90;;;;;;6185255;23;20029;-76
2022/09/07 02:05:13;;;;;;;5.95;2.53;;;23.70;99.90;;;;;;6183224;23;20013;-77
2022/09/07 02:08:01;;;;;;;7.05;2.10;;;23.60;99.90;;;;;;6185256;23;20287;-76
2022/09/07 02:10:54;;;;;;;10.52;2.20;;;23.50;99.90;;;;;;6183441;23;20009;-77
2022/09/07 02:13:30;;;;;;;2.10;1.90;;;23.40;99.90;;;;;;6183529;23;20032;-76
2022/09/07 02:16:05;;;;;;;4.97;1.77;;;23.40;99.90;;;;;;6183438;23;20063;-77
2022/09/07 02:18:42;;;;;;;2.65;1.50;;;23.30;99.90;;;;;;6184817;23;20541;-76
2022/09/07 02:21:10;;;;;;;3.13;1.48;;;23.30;99.90;;;;;;6185203;23;20001;-76
2022/09/07 02:23:52;;;;;;;5.75;1.80;;;23.30;99.90;;;;;;6185027;23;20005;-77
2022/09/07 02:26:21;;;;;;;6.90;1.90;;;23.20;99.90;;;;;;6183569;23;20096;-77
2022/09/07 02:28:47;;;;;;;2.20;1.50;;;23.10;99.90;;;;;;6185216;23;20438;-76
2022/09/07 02:31:14;;;;;;;3.47;2.05;;;23.10;99.90;;;;;;6184911;23;20429;-76
2022/09/07 02:33:40;;;;;;;9.70;2.05;;;23.10;99.90;;;;;;6185005;23;20005;-77
2022/09/07 02:36:08;;;;;;;4.30;1.70;;;23.10;99.90;;;;;;6185041;23;20009;-77
2022/09/07 02:38:34;;;;;;;3.17;1.85;;;23.10;99.90;;;;;;6183337;23;20013;-77
2022/09/07 02:41:01;;;;;;;4.10;2.33;;;23.10;99.90;;;;;;6185640;23;20051;-77
2022/09/07 02:43:29;;;;;;;4.72;1.50;;;23.10;99.90;;;;;;6187173;23;20004;-77
2022/09/07 02:46:39;;;;;;;5.78;1.75;;;23.10;99.90;;;;;;6186597;23;20001;-77
2022/09/07 02:49:15;;;;;;;3.78;1.85;;;23.10;99.90;;;;;;6184697;23;20079;-77
2022/09/07 02:52:28;;;;;;;2.80;1.85;;;23.10;99.90;;;;;;6185031;23;20342;-76
2022/09/07 02:55:09;;;;;;;4.95;1.85;;;23.10;99.90;;;;;;6180442;23;20406;-77
2022/09/07 02:57:40;;;;;;;3.33;2.17;;;23.10;99.90;;;;;;6186458;23;19997;-77
2022/09/07 03:00:11;;;;;;;3.40;2.40;;;23.10;99.90;;;;;;6185198;23;20369;-77
2022/09/07 03:03:04;;;;;;;2.53;1.65;;;23.10;99.90;;;;;;6185269;23;20011;-77
2022/09/07 03:05:51;;;;;;;6.43;2.25;;;23.10;99.90;;;;;;6184568;23;20381;-77
2022/09/07 03:08:43;;;;;;;3.90;2.03;;;23.10;99.90;;;;;;6185099;23;20015;-77
2022/09/07 03:11:09;;;;;;;4.10;1.63;;;23.10;99.90;;;;;;6186500;23;20001;-77
2022/09/07 03:13:35;;;;;;;3.25;2.22;;;23.10;99.90;;;;;;6186519;23;20039;-77
2022/09/07 03:16:01;;;;;;;5.38;2.03;;;23.00;99.90;;;;;;6186806;23;20001;-77
2022/09/07 03:18:27;;;;;;;3.78;1.90;;;23.10;99.90;;;;;;6184581;23;20008;-77
2022/09/07 03:20:53;;;;;;;4.07;1.90;;;23.10;99.90;;;;;;6186385;23;20006;-77
2022/09/07 03:23:19;;;;;;;3.38;2.30;;;23.10;99.90;;;;;;6186584;23;20151;-77
2022/09/07 03:25:47;;;;;;;4.30;2.25;;;23.10;99.90;;;;;;6186467;23;20450;-77
2022/09/07 03:28:13;;;;;;;4.28;2.17;;;23.00;99.90;;;;;;6186326;23;20019;-77
2022/09/07 03:30:45;;;;;;;6.50;1.92;;;23.00;99.90;;;;;;6186397;23;20389;-77
2022/09/07 03:33:10;;;;;;;2.45;2.25;;;23.00;99.90;;;;;;6186588;23;20325;-77
2022/09/07 03:35:37;;;;;;;5.70;2.33;;;23.00;99.90;;;;;;6184763;23;20005;-77
2022/09/07 03:38:02;;;;;;;2.45;1.98;;;23.00;99.90;;;;;;6186305;23;20001;-77
2022/09/07 03:40:28;;;;;;;7.38;3.13;;;23.00;99.90;;;;;;6186403;23;20031;-77
2022/09/07 03:42:54;;;;;;;3.60;2.35;;;23.00;99.90;;;;;;6186360;23;20001;-76
2022/09/07 03:45:20;;;;;;;2.45;1.90;;;23.00;99.90;;;;;;6186097;23;20005;-77
2022/09/07 03:47:45;;;;;;;2.30;2.10;;;23.00;99.90;;;;;;6186116;23;20076;-77
2022/09/07 03:50:11;;;;;;;2.83;2.45;;;23.00;99.90;;;;;;6184602;23;20012;-78
2022/09/07 03:52:37;;;;;;;3.60;2.55;;;23.00;99.90;;;;;;6186129;23;20081;-77
2022/09/07 03:55:04;;;;;;;4.65;2.47;;;23.00;99.90;;;;;;6186316;23;20018;-77
2022/09/07 03:57:30;;;;;;;4.05;2.63;;;23.10;99.90;;;;;;6186086;23;20001;-77
2022/09/07 03:59:56;;;;;;;4.65;2.58;;;23.10;99.90;;;;;;6186388;23;20001;-77
2022/09/07 04:02:21;;;;;;;2.95;2.22;;;23.10;99.90;;;;;;6185470;23;20444;-77
2022/09/07 04:04:47;;;;;;;5.68;2.72;;;23.20;99.90;;;;;;6186207;23;20075;-77
2022/09/07 04:07:14;;;;;;;4.82;2.47;;;23.20;99.90;;;;;;6186040;23;20005;-77
2022/09/07 04:09:40;;;;;;;3.85;2.30;;;23.20;99.90;;;;;;6159851;23;20005;-78
2022/09/07 04:12:06;;;;;;;4.68;2.63;;;23.20;99.90;;;;;;6186027;23;20055;-77
2022/09/07 04:14:31;;;;;;;5.88;2.67;;;23.20;99.90;;;;;;6185795;23;20059;-77
2022/09/07 04:16:57;;;;;;;5.82;2.90;;;23.20;99.90;;;;;;6185881;23;19997;-77
2022/09/07 04:19:23;;;;;;;3.15;2.83;;;23.10;99.90;;;;;;6159090;23;20005;-77
2022/09/07 04:21:49;;;;;;;6.57;2.70;;;23.10;99.90;;;;;;6185594;23;20005;-77
2022/09/07 04:24:16;;;;;;;6.00;2.63;;;23.00;99.90;;;;;;6185723;23;19997;-77
2022/09/07 04:26:42;;;;;;;5.95;2.90;;;23.00;99.90;;;;;;6185454;23;20005;-77
2022/09/07 04:29:09;;;;;;;6.50;2.60;;;23.00;99.90;;;;;;6185362;23;20005;-77
2022/09/07 04:31:36;;;;;;;4.10;2.55;;;23.00;99.90;;;;;;6185378;23;20083;-77
2022/09/07 04:34:02;;;;;;;4.90;2.88;;;23.00;99.90;;;;;;6185531;23;20544;-77
2022/09/07 04:36:28;;;;;;;3.38;3.08;;;23.10;99.90;;;;;;6185927;23;20005;-77
2022/09/07 04:38:59;;;;;;;3.22;2.30;;;23.00;99.90;;;;;;6185637;23;20004;-77
2022/09/07 04:41:26;;;;;;;3.28;2.60;;;23.10;99.90;;;;;;6185578;23;20001;-77
2022/09/07 04:43:55;;;;;;;3.10;2.70;;;23.10;99.90;;;;;;6185628;23;20073;-77
2022/09/07 04:46:25;;;;;;;3.67;2.72;;;23.00;99.90;;;;;;6185337;23;20004;-77
2022/09/07 04:48:54;;;;;;;3.40;3.10;;;23.00;99.90;;;;;;6159053;23;20056;-77
2022/09/07 04:51:21;;;;;;;5.68;2.45;;;23.00;99.90;;;;;;6185474;23;20004;-77
2022/09/07 04:53:48;;;;;;;6.82;3.22;;;23.00;99.90;;;;;;6185550;23;20004;-77
2022/09/07 04:56:15;;;;;;;7.50;3.20;;;23.00;99.90;;;;;;6185259;23;20001;-77
2022/09/07 04:58:41;;;;;;;5.55;3.15;;;23.00;99.90;;;;;;6185320;23;19997;-77
2022/09/07 05:01:07;;;;;;;6.00;2.70;;;22.90;99.90;;;;;;6185532;23;20028;-77
2022/09/07 05:03:48;;;;;;;3.60;2.78;;;23.00;99.90;;;;;;6185408;23;20001;-77
2022/09/07 05:06:16;;;;;;;3.30;2.80;;;23.00;99.90;;;;;;6185665;23;20020;-77
2022/09/07 05:08:44;;;;;;;4.55;3.13;;;22.90;99.90;;;;;;6159376;23;20076;-77
2022/09/07 05:11:25;;;;;;;;;;;;;;;;;;;;;
2022/09/07 05:13:55;;;;;;;3.25;2.90;;;22.90;99.90;;;;;;6185432;23;20500;-77
2022/09/07 05:16:22;;;;;;;4.72;2.80;;;22.90;99.90;;;;;;6159151;23;20007;-77
2022/09/07 05:18:51;;;;;;;6.18;3.28;;;22.90;99.90;;;;;;6158901;23;20001;-77
2022/09/07 05:21:19;;;;;;;3.17;2.97;;;22.90;99.90;;;;;;6185381;23;20001;-77
2022/09/07 05:23:49;;;;;;;5.35;3.22;;;22.80;99.90;;;;;;6185523;23;20349;-77
2022/09/07 05:26:15;;;;;;;3.40;2.90;;;22.80;99.90;;;;;;6185194;23;20001;-77
2022/09/07 05:28:41;;;;;;;5.72;3.22;;;22.80;99.90;;;;;;6159191;23;20013;-77
2022/09/07 05:31:10;;;;;;;8.02;3.22;;;22.80;99.90;;;;;;6185231;23;20430;-77
2022/09/07 05:33:36;;;;;;;3.28;2.80;;;22.80;99.90;;;;;;6185605;23;20025;-77
2022/09/07 05:36:03;;;;;;;3.38;3.08;;;22.80;99.90;;;;;;6185465;23;20000;-77
2022/09/07 05:38:29;;;;;;;5.13;2.88;;;22.70;99.90;;;;;;6184938;23;20346;-77
2022/09/07 05:40:55;;;;;;;3.90;3.60;;;22.70;99.90;;;;;;6185119;23;20028;-77
2022/09/07 05:43:21;;;;;;;5.00;3.38;;;22.70;99.90;;;;;;6185301;23;20012;-77
2022/09/07 05:45:47;;;;;;;3.35;3.15;;;22.70;99.90;;;;;;6185182;23;20314;-77
2022/09/07 05:48:13;;;;;;;6.38;3.83;;;22.70;99.90;;;;;;6158684;23;20529;-77
2022/09/07 05:50:48;;;;;;;5.50;3.35;;;22.70;99.90;;;;;;6184756;23;20001;-77
2022/09/07 05:53:13;;;;;;;5.78;3.35;;;22.70;99.90;;;;;;6185234;23;20001;-77
2022/09/07 05:55:39;;;;;;;4.38;3.58;;;22.70;99.90;;;;;;6185196;23;20643;-77
2022/09/07 05:58:05;;;;;;;3.63;3.33;;;22.70;99.90;;;;;;6158126;23;20033;-77
2022/09/07 06:00:30;;;;;;;4.85;3.55;;;22.80;99.90;;;;;;6185342;23;20056;-77
2022/09/07 06:02:56;;;;;;;3.97;3.63;;;22.80;99.90;;;;;;6185130;23;19997;-77
2022/09/07 06:05:22;;;;;;;3.90;3.50;;;22.70;99.90;;;;;;6185167;23;20013;-77
2022/09/07 06:07:48;;;;;;;3.45;3.25;;;22.80;99.90;;;;;;6185289;23;20370;-77
2022/09/07 06:10:13;;;;;;;3.60;3.10;;;22.80;99.90;;;;;;6185314;23;20302;-77
2022/09/07 06:12:44;;;;;;;3.63;3.33;;;22.90;99.90;;;;;;6158767;23;20600;-77
2022/09/07 06:15:10;;;;;;;3.73;3.50;;;22.90;99.90;;;;;;6185206;23;20029;-77
2022/09/07 06:17:36;;;;;;;7.85;3.03;;;22.90;99.90;;;;;;6187137;23;20004;-77
2022/09/07 06:20:03;;;;;;;6.32;4.43;;;22.90;99.90;;;;;;6187150;23;20384;-77
2022/09/07 06:22:29;;;;;;;4.97;3.70;;;23.00;99.90;;;;;;6186951;23;20048;-77
2022/09/07 06:24:54;;;;;;;4.80;3.25;;;23.00;99.90;;;;;;6160636;23;20009;-77
2022/09/07 06:27:24;;;;;;;4.30;3.63;;;23.10;99.90;;;;;;6160403;23;20008;-77
2022/09/07 06:29:49;;;;;;;4.50;3.13;;;23.10;99.90;;;;;;6161039;23;20068;-77
2022/09/07 06:32:15;;;;;;;7.70;3.53;;;23.20;99.90;;;;;;6186909;23;20302;-77
2022/09/07 06:34:41;;;;;;;6.68;3.30;;;23.30;99.90;;;;;;6187084;23;20001;-77
2022/09/07 06:37:07;;;;;;;4.10;3.25;;;23.30;99.90;;;;;;6160414;23;20005;-77
2022/09/07 06:39:35;;;;;;;4.00;3.65;;;23.40;99.90;;;;;;6187113;23;20118;-76
2022/09/07 06:42:02;;;;;;;4.10;3.35;;;23.40;99.90;;;;;;6160756;23;20009;-77
2022/09/07 06:44:28;;;;;;;3.85;3.55;;;23.40;99.90;;;;;;6186933;23;20044;-77
2022/09/07 06:46:54;;;;;;;4.55;3.25;;;23.50;99.90;;;;;;6186940;23;20008;-77
2022/09/07 06:49:20;;;;;;;3.83;3.58;;;23.50;99.90;;;;;;6186795;23;19997;-77
2022/09/07 06:51:45;;;;;;;6.65;3.85;;;23.60;99.90;;;;;;6187134;23;20005;-77
2022/09/07 06:54:11;;;;;;;4.28;3.88;;;23.70;99.90;;;;;;6186875;23;20419;-77
2022/09/07 06:56:37;;;;;;;10.88;3.67;;;23.70;99.90;;;;;;6186717;23;20048;-77
2022/09/07 06:59:03;;;;;;;4.65;3.60;;;23.70;99.90;;;;;;6186783;23;20008;-77
2022/09/07 07:01:31;;;;;;;3.50;3.20;;;23.80;99.90;;;;;;6186657;23;20008;-77
2022/09/07 07:03:56;;;;;;;3.80;3.45;;;23.80;99.90;;;;;;6186807;23;20342;-77
2022/09/07 07:06:22;;;;;;;4.00;3.10;;;23.80;99.90;;;;;;6186437;23;20013;-78
2022/09/07 07:08:53;;;;;;;6.25;3.78;;;23.90;99.90;;;;;;6186613;23;20001;-78
2022/09/07 07:11:18;;;;;;;5.32;3.63;;;23.90;99.90;;;;;;6186790;23;20566;-78
2022/09/07 07:13:44;;;;;;;6.30;3.40;;;23.90;99.90;;;;;;6186607;23;19997;-78
2022/09/07 07:16:12;;;;;;;5.40;3.78;;;23.90;99.90;;;;;;6186340;23;20008;-77
2022/09/07 07:18:40;;;;;;;4.25;3.80;;;24.00;99.90;;;;;;6186515;23;19997;-78
2022/09/07 07:21:08;;;;;;;4.75;3.90;;;24.10;99.90;;;;;;6160117;23;20028;-78
2022/09/07 07:23:35;;;;;;;15.73;4.47;;;24.10;99.90;;;;;;6160271;23;20075;-77
2022/09/07 07:26:13;;;;;;;5.55;3.97;;;24.20;99.90;;;;;;6160217;23;19997;-77
2022/09/07 07:28:44;;;;;;;7.47;4.50;;;24.30;99.90;;;;;;6156413;23;20009;-77
2022/09/07 07:31:10;;;;;;;5.60;4.00;;;24.30;99.90;;;;;;6183662;23;20005;-78
2022/09/07 07:33:37;;;;;;;5.63;4.28;;;24.30;99.90;;;;;;6183291;23;20453;-77
2022/09/07 07:36:15;;;;;;;5.03;4.50;;;24.40;99.90;;;;;;6183698;23;20036;-79
2022/09/07 07:38:43;;;;;;;6.20;4.63;;;24.40;99.90;;;;;;6157358;23;20001;-79
2022/09/07 07:41:10;;;;;;;5.70;3.58;;;24.50;99.90;;;;;;6183006;23;20040;-79
2022/09/07 07:43:36;;;;;;;11.77;4.60;;;24.50;99.90;;;;;;6183250;23;20005;-78
2022/09/07 07:46:02;;;;;;;4.50;4.03;;;24.60;99.90;;;;;;6157141;23;20032;-78
2022/09/07 07:48:30;;;;;;;5.47;4.40;;;24.60;99.90;;;;;;6182629;23;20001;-79
2022/09/07 07:51:04;;;;;;;6.65;4.63;;;24.70;99.90;;;;;;6156750;23;20013;-79
2022/09/07 07:53:32;;;;;;;4.38;4.07;;;24.70;99.90;;;;;;6183574;23;20023;-81
2022/09/07 07:55:59;;;;;;;3.80;3.50;;;24.70;99.90;;;;;;6183053;23;20009;-80
2022/09/07 07:58:26;;;;;;;4.50;4.10;;;24.80;99.90;;;;;;6157052;23;20008;-78
2022/09/07 08:00:53;;;;;;;5.05;3.95;;;24.90;99.90;;;;;;6182970;23;20008;-78
2022/09/07 08:03:20;;;;;;;6.90;3.75;;;24.90;99.90;;;;;;6183252;23;20007;-78
2022/09/07 08:05:46;;;;;;;7.32;4.38;;;25.00;99.90;;;;;;6183086;23;20013;-77
2022/09/07 08:08:12;;;;;;;4.55;3.95;;;25.00;99.90;;;;;;6156015;23;20046;-78
2022/09/07 08:10:37;;;;;;;5.53;4.07;;;25.00;99.90;;;;;;6183327;23;20005;-77
2022/09/07 08:13:03;;;;;;;4.35;3.95;;;25.00;99.90;;;;;;6182987;23;20389;-78
2022/09/07 08:15:30;;;;;;;4.20;3.90;;;25.10;99.90;;;;;;6156393;23;20510;-78
2022/09/07 08:17:56;;;;;;;5.13;3.90;;;25.10;99.90;;;;;;6183121;23;20004;-78
2022/09/07 08:20:22;;;;;;;5.07;3.67;;;25.20;99.90;;;;;;6182491;23;20001;-78
2022/09/07 08:22:51;;;;;;;4.60;3.55;;;25.20;99.90;;;;;;6183189;23;20060;-78
2022/09/07 08:25:17;;;;;;;4.38;3.60;;;25.20;99.90;;;;;;6183323;23;20067;-77
2022/09/07 08:27:43;;;;;;;5.03;4.60;;;25.30;99.90;;;;;;6156308;23;20005;-78
2022/09/07 08:30:09;;;;;;;4.18;3.83;;;25.30;99.90;;;;;;6183072;23;20075;-77
2022/09/07 08:32:35;;;;;;;4.90;4.40;;;25.30;99.90;;;;;;6182559;23;20032;-78
2022/09/07 08:35:02;;;;;;;5.68;4.50;;;25.30;99.90;;;;;;6182461;23;20489;-77
2022/09/07 08:37:28;;;;;;;5.05;3.97;;;25.30;99.90;;;;;;6183106;23;20005;-78
2022/09/07 08:39:53;;;;;;;5.22;4.22;;;25.30;99.90;;;;;;6182247;23;19997;-77
2022/09/07 08:42:51;;;;;;;6.85;4.75;;;25.40;99.90;;;;;;6182028;23;20005;-75
2022/09/07 08:45:27;;;;;;;5.80;4.43;;;25.40;99.90;;;;;;6182161;23;20088;-77
2022/09/07 08:47:52;;;;;;;4.20;3.80;;;25.60;99.90;;;;;;6182090;23;20004;-77
2022/09/07 08:50:22;;;;;;;4.82;4.40;;;25.60;99.90;;;;;;6181725;23;20432;-77
2022/09/07 08:52:50;;;;;;;5.60;4.78;;;25.80;99.90;;;;;;6155806;23;20079;-77
2022/09/07 08:55:28;;;;;;;6.10;4.57;;;25.90;99.90;;;;;;6182101;23;20001;-77
2022/09/07 08:58:16;;;;;;;6.22;4.70;;;25.80;99.90;;;;;;6181783;23;20076;-77
2022/09/07 09:00:42;;;;;;;4.47;4.00;;;25.90;99.90;;;;;;6110214;23;20005;-77
2022/09/07 09:03:35;;;;;;;4.30;4.00;;;25.90;99.90;;;;;;6182075;23;20057;-77
2022/09/07 09:06:23;;;;;;;;;;;25.90;99.90;;;;;;6176603;23;20071;-75
2022/09/07 09:08:54;;;;;;;5.35;3.70;;;25.80;99.90;;;;;;6180967;23;19907;-76
2022/09/07 09:11:58;;;;;;;5.95;4.55;;;25.80;99.90;;;;;;6181227;23;20323;-75
2022/09/07 09:14:51;;;;;;;8.65;4.95;;;25.80;99.90;;;;;;6106598;23;20828;-76
2022/09/07 09:17:43;;;;;;;6.47;4.40;;;25.90;99.90;;;;;;6181638;23;19997;-75
2022/09/07 09:20:17;;;;;;;5.15;4.65;;;25.90;99.90;;;;;;6181933;23;20001;-76
2022/09/07 09:22:43;;;;;;;4.75;4.35;;;25.90;99.90;;;;;;6185848;23;20528;-77
2022/09/07 09:25:15;;;;;;;4.78;4.38;;;25.90;99.90;;;;;;6185672;23;20056;-77
2022/09/07 09:27:41;;;;;;;10.30;5.53;;;26.00;99.90;;;;;;6185413;23;20008;-77
2022/09/07 09:30:13;;;;;;;5.10;4.68;;;26.10;99.90;;;;;;6185358;23;20143;-77
2022/09/07 09:32:44;;;;;;;5.32;4.50;;;26.10;99.90;;;;;;6158901;23;20374;-77
2022/09/07 09:35:21;;;;;;;6.72;4.32;;;26.00;99.90;;;;;;6158755;23;20009;-77
2022/09/07 09:37:47;;;;;;;6.57;4.63;;;26.10;99.90;;;;;;6185269;23;20012;-79
2022/09/07 09:40:23;;;;;;;5.57;5.10;;;26.10;99.90;;;;;;6185214;23;20394;-79
2022/09/07 09:42:58;;;;;;;5.60;5.07;;;26.10;99.90;;;;;;6184958;23;20012;-79
2022/09/07 09:45:28;;;;;;;8.15;5.20;;;26.10;99.90;;;;;;6158200;23;20036;-79
2022/09/07 09:47:54;;;;;;;7.57;4.57;;;26.00;99.90;;;;;;6158488;23;20013;-78
2022/09/07 09:50:28;;;;;;;4.90;4.50;;;26.10;99.90;;;;;;6184581;23;20057;-79
2022/09/07 09:52:54;;;;;;;5.65;5.15;;;26.10;99.90;;;;;;6158788;23;20064;-79
2022/09/07 09:55:30;;;;;;;8.05;4.63;;;26.10;99.90;;;;;;6158655;23;20426;-79
2022/09/07 09:58:01;;;;;;;4.65;4.25;;;26.20;99.90;;;;;;6184869;23;20444;-79
2022/09/07 10:00:30;;;;;;;5.47;4.97;;;26.20;99.90;;;;;;6184992;23;20088;-79
2022/09/07 10:03:11;;;;;;;5.38;4.95;;;26.20;99.90;;;;;;6158740;23;20673;-79
2022/09/07 10:05:42;;;;;;;7.90;5.50;;;26.30;99.90;;;;;;6185039;23;20091;-79
2022/09/07 10:08:22;;;;;;;4.82;4.43;;;26.30;99.90;;;;;;6185054;23;20373;-79
2022/09/07 10:11:09;;;;;;;5.90;4.68;;;26.40;99.90;;;;;;6185086;23;20012;-79
2022/09/07 10:13:41;;;;;;;5.00;4.60;;;26.40;99.90;;;;;;6184984;23;20001;-79
2022/09/07 10:16:08;;;;;;;4.72;4.38;;;26.50;99.90;;;;;;6184983;23;20001;-79
2022/09/07 10:18:37;;;;;;;6.40;5.30;;;26.60;99.90;;;;;;6184831;23;20008;-79
2022/09/07 10:21:17;;;;;;;8.05;5.05;;;26.60;99.90;;;;;;6184993;23;20001;-79
2022/09/07 10:23:43;;;;;;;5.53;5.00;;;26.70;99.90;;;;;;6185047;23;20466;-79
2022/09/07 10:26:34;;;;;;;5.10;4.70;;;26.70;99.90;;;;;;6185011;23;20001;-79
2022/09/07 10:29:08;;;;;;;5.03;4.63;;;26.80;99.90;;;;;;6184935;23;20374;-79
2022/09/07 10:31:39;;;;;;;5.03;4.53;;;26.80;99.90;;;;;;6184907;23;20016;-79
2022/09/07 10:34:29;;;;;;;7.60;5.65;;;26.80;99.90;;;;;;6185042;23;20005;-79
2022/09/07 10:37:01;;;;;;;5.22;4.72;;;26.80;99.90;;;;;;6184963;23;20381;-78
2022/09/07 10:39:34;;;;;;;5.93;5.28;;;26.80;99.90;;;;;;6184975;23;20005;-79
2022/09/07 10:42:31;;;;;;;6.03;5.10;;;26.90;99.90;;;;;;6184944;23;20009;-79
2022/09/07 10:45:09;;;;;;;7.15;4.60;;;27.00;99.90;;;;;;6155703;23;20438;-79
2022/09/07 10:48:06;;;;;;;8.18;4.40;;;27.10;99.90;;;;;;6184909;23;20008;-79
2022/09/07 10:50:43;;;;;;;8.20;5.70;;;27.20;99.90;;;;;;6184864;23;20640;-79
2022/09/07 10:53:54;;;;;;;6.20;5.60;;;27.30;99.90;;;;;;6184992;23;20055;-79
2022/09/07 10:56:29;;;;;;;8.43;6.07;;;27.30;99.90;;;;;;6183927;23;20029;-79
2022/09/07 10:59:19;;;;;;;8.32;5.78;;;27.30;99.90;;;;;;6184452;23;20012;-79
2022/09/07 11:01:53;;;;;;;5.88;5.38;;;27.40;99.90;;;;;;6185092;23;20052;-79
2022/09/07 11:04:48;;;;;;;6.60;5.50;;;27.40;99.90;;;;;;6186557;23;20474;-79
2022/09/07 11:07:40;;;;;;;5.85;5.43;;;27.50;99.90;;;;;;6132613;23;20066;-79
2022/09/07 11:10:25;;;;;;;7.47;5.32;;;27.60;99.90;;;;;;6159904;23;20040;-79
2022/09/07 11:12:55;;;;;;;7.45;6.18;;;27.70;99.90;;;;;;6160294;23;20009;-79
2022/09/07 11:15:30;;;;;;;11.43;6.50;;;27.70;99.90;;;;;;6186683;23;20008;-78
2022/09/07 11:18:07;;;;;;;7.55;6.00;;;27.60;99.90;;;;;;6185632;23;20004;-79
2022/09/07 11:20:45;;;;;;;8.90;6.75;;;27.60;99.90;;;;;;6185653;23;20026;-79
2022/09/07 11:23:18;;;;;;;7.13;6.05;;;27.60;99.90;;;;;;6185371;23;20009;-79
2022/09/07 11:26:03;;;;;;;8.15;5.30;;;27.60;99.90;;;;;;6185456;23;20076;-79
2022/09/07 11:28:42;;;;;;;10.73;6.20;;;27.50;99.90;;;;;;6185193;23;20533;-79
2022/09/07 11:31:34;;;;;;;6.97;6.28;;;27.50;99.90;;;;;;6185400;23;20037;-79
2022/09/07 11:34:05;;;;;;;5.50;4.97;;;27.60;99.90;;;;;;6159097;23;20001;-78
2022/09/07 11:36:39;;;;;;;10.07;6.43;;;27.70;99.90;;;;;;6185252;23;20080;-79
2022/09/07 11:39:11;;;;;;;7.18;6.53;;;27.70;99.90;;;;;;6185984;23;20421;-79
2022/09/07 11:41:43;;;;;;;7.78;4.53;;;27.70;99.90;;;;;;6186467;23;20492;-78
2022/09/07 11:44:28;;;;;;;7.45;5.22;;;27.70;99.90;;;;;;6159898;23;20013;-79
2022/09/07 11:47:18;;;;;;;6.93;4.78;;;27.90;99.90;;;;;;6186070;23;20374;-79
2022/09/07 11:49:43;;;;;;;6.53;4.63;;;27.90;99.90;;;;;;6185957;23;20008;-78
2022/09/07 11:52:26;;;;;;;6.05;4.95;;;28.00;99.90;;;;;;6159758;23;20005;-79
2022/09/07 11:54:59;;;;;;;5.60;4.93;;;28.00;99.90;;;;;;6186219;23;20429;-78
2022/09/07 11:58:01;;;;;;;5.65;5.05;;;28.00;99.90;;;;;;6185838;23;20001;-78
2022/09/07 12:00:47;;;;;;;10.98;4.95;;;28.10;99.90;;;;;;6185977;23;20025;-78
2022/09/07 12:04:00;;;;;;;6.90;4.63;;;28.10;99.90;;;;;;6186406;23;20569;-78
2022/09/07 12:06:50;;;;;;;6.10;4.32;;;28.10;99.90;;;;;;6060580;23;20019;-78
2022/09/07 12:09:38;;;;;;;4.10;3.75;;;28.20;99.90;;;;;;6066203;23;20086;-79
2022/09/07 12:12:07;;;;;;;4.82;4.32;;;28.20;99.90;;;;;;6159363;23;20039;-79
2022/09/07 12:14:38;;;;;;;7.68;4.90;;;28.30;99.90;;;;;;6185815;23;20434;-79
2022/09/07 12:17:33;;;;;;;6.63;4.63;;;28.20;99.90;;;;;;6185947;23;20002;-78
2022/09/07 12:20:19;;;;;;;6.50;4.90;;;28.20;99.90;;;;;;6185191;23;20001;-78
2022/09/07 12:22:57;;;;;;;6.18;4.80;;;28.20;99.90;;;;;;6185988;23;20457;-78
2022/09/07 12:25:24;;;;;;;5.00;4.50;;;28.20;99.90;;;;;;6185903;23;20051;-79
2022/09/07 12:27:51;;;;;;;4.40;4.07;;;28.20;99.90;;;;;;6185626;23;20005;-79
2022/09/07 12:30:20;;;;;;;8.80;5.28;;;28.20;99.90;;;;;;6185690;23;20005;-79
2022/09/07 12:32:52;;;;;;;9.93;5.00;;;28.10;99.90;;;;;;6185731;23;20005;-79
2022/09/07 12:35:27;;;;;;;6.57;4.25;;;28.10;99.90;;;;;;6186010;23;19997;-78
2022/09/07 12:38:04;;;;;;;4.65;4.15;;;28.10;99.90;;;;;;6185858;23;20001;-79
2022/09/07 12:40:33;;;;;;;5.85;4.00;;;28.10;99.90;;;;;;6184529;23;20005;-78
2022/09/07 12:43:13;;;;;;;4.78;3.50;;;28.10;99.90;;;;;;6185923;23;20001;-79
2022/09/07 12:45:50;;;;;;;4.18;3.80;;;28.10;99.90;;;;;;6185839;23;20005;-79
2022/09/07 12:48:15;;;;;;;5.80;3.58;;;28.10;99.90;;;;;;6184164;23;20005;-78
2022/09/07 12:50:55;;;;;;;4.07;3.38;;;28.10;99.90;;;;;;6185760;23;20406;-78
2022/09/07 12:53:46;;;;;;;9.20;4.10;;;28.10;99.90;;;;;;6185621;23;20001;-78
2022/09/07 12:56:30;;;;;;;4.35;3.53;;;28.10;99.90;;;;;;6185887;23;20000;-78
2022/09/07 12:58:55;;;;;;;5.28;3.50;;;28.10;99.90;;;;;;6185627;23;20068;-79
2022/09/07 13:01:33;;;;;;;4.32;4.03;;;28.10;99.90;;;;;;6185937;23;20037;-78
2022/09/07 13:04:30;;;;;;;5.63;4.32;;;28.10;99.90;;;;;;6185652;23;20005;-78
2022/09/07 13:07:06;;;;;;;3.90;3.60;;;28.20;99.90;;;;;;6139802;23;20017;-78
2022/09/07 13:09:37;;;;;;;3.80;3.50;;;28.20;99.90;;;;;;6185700;23;20040;-78
2022/09/07 13:12:39;;;;;;;6.97;3.85;;;28.20;99.90;;;;;;6185426;23;20009;-79
2022/09/07 13:15:05;;;;;;;5.55;4.90;;;28.20;99.90;;;;;;6185468;23;20024;-78
2022/09/07 13:17:32;;;;;;;5.57;5.07;;;28.20;99.90;;;;;;6183761;23;20402;-75